Service Notice

This observation station is currently unavailable due to a loss of power in the area.

Work to restore the service will be undertaken as soon as it is safe to do so.

The Bureau's national resources allow our meteorologists to produce accurate and timely forecasts and warnings in areas without observations, including for the locations around this station site. Search for forcast by town, city, post code or lat/lon here or find the location on the MetEye map.

Latest Coastal Weather Observations for Mallacoota

IDV60701

Issued at 7:52 pm EST Monday 4 May 2026 (issued every 10 minutes, with the page automatically refreshed every 10 minutes)

About coastal observations | Map of coastal stations | Coastal observations for VIC | Marine services | Other Formats
Station Details ID: 084084 Name: MALLACOOTA Lat: -37.60 Lon: 149.73 Height: 22.0 m
Data from the previous 72 hours. | See also: Recent months at Mallacoota
Date/Time
EST
Wind Sea
Height
m
Swell Vis
km
Cloud Weather Temp
°C
Press
MSL
hPa
Rain since
9am
mm
Dir  Spd
kts
Gust
kts
Height
m
Period
s
Dir
04/07:30pm WNW 6 8 - - - - - - - 12.9 1012.7 0.8
04/07:00pm NW 6 7 - - - - - - - 13.4 1012.6 0.8
04/06:30pm WNW 5 6 - - - - - - - 13.5 1012.4 0.8
04/06:00pm NW 5 6 - - - - - - - 14.2 1012.1 0.8
04/05:30pm SW 3 4 - - - - - - - 14.3 1012.0 0.8
04/05:00pm SW 3 5 - - - - - - - 15.7 1012.0 0.8
04/04:30pm SW 6 8 - - - - - - - 16.7 1011.7 0.4
04/04:00pm SW 6 9 - - - - - - - 16.8 1011.7 0.4
04/03:30pm SSW 11 14 - - - - - - - 17.2 1011.4 0.4
04/03:00pm SSW 10 16 - - - - - - Recent precip. 18.5 1011.1 0.4
04/02:30pm SW 6 9 - - - - - - - 17.4 1011.1 0.4
04/02:00pm SSW 7 13 - - - - - - - 18.1 1010.6 0.0
04/01:30pm SSW 10 14 - - - - - - - 19.6 1010.5 0.0
04/01:00pm SSW 10 14 - - - - - - - 18.3 1010.7 0.0
04/12:30pm S 11 13 - - - - - - - 18.9 1011.2 0.0
04/12:00pm S 9 11 - - - - - - - 19.3 1011.6 0.0
04/11:30am S 7 10 - - - - - - - 19.3 1012.1 0.0
04/11:00am S 10 14 - - - - - - - 17.8 1012.7 0.0
04/10:30am N 4 6 - - - - - - - 20.8 1012.8 0.0
04/10:00am NNW 4 7 - - - - - - - 20.6 1012.9 0.0
04/09:30am NNE 6 8 - - - - - - - 20.9 1012.8 0.0
04/09:00am NNE 5 7 - - - - - - - 19.5 1012.8 6.0
04/08:30am N 5 6 - - - - - - - 18.8 1012.9 6.0
04/08:00am NW 5 7 - - - - - - - 17.9 1012.6 6.0
04/07:30am N 5 7 - - - - - - - 17.4 1012.4 6.0
04/07:00am NNW 5 7 - - - - - - - 16.9 1012.1 6.0
04/06:30am NW 4 5 - - - - - - - 16.9 1012.0 6.0
04/06:00am N 3 4 - - - - - - Recent precip. 16.9 1012.2 6.0
04/05:30am N 4 5 - - - - - - - 16.9 1012.3 5.8
04/05:00am NNW 5 6 - - - - - - - 17.1 1012.6 5.8
04/04:30am E 7 9 - - - - - - - 17.2 1012.1 5.8
04/04:00am NNW 4 5 - - - - - - - 17.2 1012.9 5.2
04/03:30am NW 3 4 - - - - - - - 17.1 1013.5 4.4
04/03:00am NW 3 4 - - - - - - Rain 17.3 1013.7 3.6
04/02:30am W 5 7 - - - - - - - 17.5 1013.7 2.4
04/02:00am W 5 8 - - - - - - - 17.8 1013.9 1.4
04/01:30am NW 4 5 - - - - - - - 18.1 1013.7 1.2
04/01:00am NNW 5 7 - - - - - - - 18.3 1013.7 0.6
04/12:30am N 6 9 - - - - - - - 18.8 1013.7 0.2
04/12:00am N 7 11 - - - - - - - 19.6 1013.5 0.0
 
Date/Time
EST
Wind Sea
Height
m
Swell Vis
km
Cloud Weather Temp
°C
Press
MSL
hPa
Rain since
9am
mm
Dir  Spd
kts
Gust
kts
Height
m
Period
s
Dir
03/11:30pm N 9 16 - - - - - - - 20.0 1013.8 0.0
03/11:00pm N 9 14 - - - - - - - 20.9 1013.8 0.0
03/10:30pm NNE 11 17 - - - - - - - 21.1 1013.9 0.0
03/10:00pm NNE 10 13 - - - - - - - 21.1 1014.3 0.0
03/09:30pm NNE 9 13 - - - - - - - 21.2 1014.6 0.0
03/09:00pm NNE 8 12 - - - - - - - 20.9 1014.6 0.0
03/08:30pm N 9 15 - - - - - - - 21.0 1014.6 0.0
03/08:00pm NNE 12 21 - - - - - - - 20.9 1014.2 0.0
03/07:30pm NNE 11 15 - - - - - - - 20.8 1014.3 0.0
03/07:00pm N 9 13 - - - - - - - 20.6 1014.1 0.0
03/06:30pm N 11 17 - - - - - - - 20.8 1014.2 0.0
03/06:00pm N 9 14 - - - - - - - 20.7 1014.1 0.0
03/05:30pm N 8 13 - - - - - - - 21.0 1013.7 0.0
03/05:00pm N 8 11 - - - - - - - 21.1 1013.8 0.0
03/04:30pm N 7 10 - - - - - - - 21.7 1014.0 0.0
03/04:00pm N 6 10 - - - - - - - 21.9 1014.2 0.0
03/03:30pm NNE 11 16 - - - - - - - 22.2 1014.3 0.0
03/03:00pm NNE 9 13 - - - - - - - 22.7 1014.5 0.0
03/02:30pm NNE 12 17 - - - - - - - 23.0 1014.4 0.0
03/02:00pm NNE 11 16 - - - - - - - 23.6 1014.2 0.0
03/01:30pm NNE 13 19 - - - - - - - 24.6 1014.5 0.0
03/01:00pm N 13 21 - - - - - - - 24.8 1014.9 0.0
03/12:30pm N 10 15 - - - - - - - 23.4 1015.2 0.0
03/12:00pm NNE 13 20 - - - - - - - 22.7 1015.7 0.0
03/11:30am N 10 14 - - - - - - - 22.5 1016.4 0.0
03/11:00am N 13 22 - - - - - - - 21.7 1016.7 0.0
03/10:30am N 14 24 - - - - - - - 21.4 1017.2 0.0
03/10:00am NNE 10 16 - - - - - - - 21.9 1017.5 0.0
03/09:30am N 8 12 - - - - - - - 20.6 1017.9 0.0
03/09:00am N 12 23 - - - - - - - 20.2 1018.1 0.0
03/08:30am N 11 20 - - - - - - - 19.9 1018.3 0.0
03/08:00am N 9 14 - - - - - - - 19.7 1018.2 0.0
03/07:30am N 9 13 - - - - - - - 19.5 1018.0 0.0
03/07:00am N 9 13 - - - - - - - 19.4 1017.7 0.0
03/06:30am NNE 9 13 - - - - - - - 19.5 1017.6 0.0
03/06:00am NNE 9 12 - - - - - - - 19.3 1017.7 0.0
03/05:30am N 10 16 - - - - - - - 19.7 1018.0 0.0
03/05:00am N 9 15 - - - - - - - 19.8 1018.1 0.0
03/04:30am NNE 9 15 - - - - - - - 19.9 1018.0 0.0
03/04:00am NNE 10 17 - - - - - - - 20.0 1017.8 0.0
03/03:30am NNE 10 14 - - - - - - - 20.0 1018.1 0.0
03/03:00am NNE 11 17 - - - - - - - 20.3 1018.3 0.0
03/02:30am NNE 13 22 - - - - - - - 20.6 1018.4 0.0
03/02:00am NNE 11 19 - - - - - - - 20.6 1018.7 0.0
03/01:30am NNE 12 19 - - - - - - - 20.7 1018.8 0.0
03/01:00am NNE 13 20 - - - - - - - 20.9 1019.1 0.0
03/12:30am N 12 17 - - - - - - - 20.8 1019.4 0.0
03/12:00am N 11 21 - - - - - - - 20.8 1019.5 0.0
 
Date/Time
EST
Wind Sea
Height
m
Swell Vis
km
Cloud Weather Temp
°C
Press
MSL
hPa
Rain since
9am
mm
Dir  Spd
kts
Gust
kts
Height
m
Period
s
Dir
02/11:30pm N 11 16 - - - - - - - 20.9 1019.8 0.0
02/11:00pm N 12 21 - - - - - - - 21.0 1019.8 0.0
02/10:30pm N 10 15 - - - - - - - 20.8 1020.0 0.0
02/10:00pm N 9 14 - - - - - - - 20.4 1020.3 0.0
02/09:30pm N 10 16 - - - - - - - 20.4 1020.5 0.0
02/09:00pm N 8 12 - - - - - - - 20.3 1020.5 0.0
02/08:30pm N 7 10 - - - - - - - 20.1 1020.4 0.0
02/08:00pm N 7 11 - - - - - - - 20.1 1020.7 0.0
02/07:30pm N 8 12 - - - - - - - 20.1 1020.5 0.0
02/07:00pm N 7 9 - - - - - - - 20.0 1020.5 0.0
02/06:30pm N 5 9 - - - - - - - 19.8 1020.2 0.0
02/06:00pm N 4 6 - - - - - - - 19.4 1020.2 0.0
02/05:30pm N 6 9 - - - - - - - 19.7 1020.1 0.0
02/05:00pm N 5 9 - - - - - - - 19.8 1020.2 0.0
02/04:30pm NNE 3 4 - - - - - - - 20.2 1020.2 0.0
02/04:00pm NNE 7 11 - - - - - - - 20.9 1020.2 0.0
02/03:30pm NNE 5 9 - - - - - - - 21.4 1020.3 0.0
02/03:00pm NE 5 7 - - - - - - - 21.2 1020.4 0.0
02/02:30pm NNE 6 8 - - - - - - - 23.1 1020.4 0.0
02/02:00pm NNE 6 9 - - - - - - - 22.9 1020.6 0.0
02/01:30pm NNE 5 8 - - - - - - - 22.5 1020.9 0.0
02/01:00pm NNE 6 9 - - - - - - - 22.4 1021.1 0.0
02/12:30pm NE 6 8 - - - - - - - 22.8 1021.4 0.0
02/12:00pm N 7 11 - - - - - - - 23.3 1021.9 0.0
02/11:30am NNE 8 12 - - - - - - - 22.4 1022.4 0.0
02/11:00am N 7 11 - - - - - - - 22.3 1022.9 0.0
02/10:30am N 8 12 - - - - - - - 22.1 1023.5 0.0
02/10:00am NNE 9 12 - - - - - - - 21.5 1023.6 0.0
02/09:30am NNW 6 10 - - - - - - - 20.2 1023.8 0.0
02/09:00am NNW 6 9 - - - - - - - 18.8 1024.2 0.0
02/08:30am NW 6 9 - - - - - - - 17.0 1024.1 0.0
02/08:00am NW 6 9 - - - - - - - 15.7 1024.1 0.0
02/07:30am NW 5 8 - - - - - - - 14.7 1024.0 0.0
02/07:00am NW 5 6 - - - - - - - 14.6 1024.1 0.0
02/06:30am NW 5 8 - - - - - - - 14.9 1023.9 0.0
02/06:00am NNW 7 8 - - - - - - - 14.8 1023.7 0.0
02/05:30am NNW 6 8 - - - - - - - 15.2 1023.5 0.0
02/05:00am NNE 5 6 - - - - - - - 15.2 1023.5 0.0
02/04:30am N 5 7 - - - - - - - 15.5 1023.4 0.0
02/04:00am NNE 5 8 - - - - - - - 15.6 1023.4 0.0
02/03:30am NNW 5 7 - - - - - - - 16.2 1023.5 0.0
02/03:00am N 7 9 - - - - - - - 16.9 1023.7 0.0
02/02:30am N 7 12 - - - - - - - 18.1 1023.9 0.0
02/02:00am N 8 13 - - - - - - - 18.3 1024.1 0.0
02/01:30am NNE 8 14 - - - - - - - 18.5 1024.2 0.0
02/01:00am NNE 9 14 - - - - - - - 18.8 1024.5 0.0
02/12:30am NNE 8 15 - - - - - - - 18.6 1024.8 0.0
02/12:00am N 6 11 - - - - - - - 18.3 1025.0 0.0
 
Date/Time
EST
Wind Sea
Height
m
Swell Vis
km
Cloud Weather Temp
°C
Press
MSL
hPa
Rain since
9am
mm
Dir  Spd
kts
Gust
kts
Height
m
Period
s
Dir
01/11:30pm N 7 9 - - - - - - - 18.2 1025.0 0.0
01/11:00pm N 9 13 - - - - - - - 18.4 1025.2 0.0
01/10:30pm N 5 8 - - - - - - - 17.9 1025.5 0.0
01/10:00pm N 6 8 - - - - - - - 18.0 1025.6 0.0
01/09:30pm N 7 9 - - - - - - - 18.4 1025.7 0.0
01/09:00pm N 7 9 - - - - - - - 18.3 1025.7 0.0
01/08:30pm N 5 8 - - - - - - - 18.1 1025.8 0.0
01/08:00pm N 5 8 - - - - - - - 17.6 1025.6 0.0

Other formats

Comma delimited format used in spreadsheet applications
http://www.bom.gov.au/fwo/IDV60701/IDV60701.94935.axf

JavaScript Object Notation format (JSON) in row-major order
http://www.bom.gov.au/fwo/IDV60701/IDV60701.94935.json

Data quality

Most of these data are generated automatically and are frequently updated. Quality checks on data are not normally performed. It is possible for incorrect values to appear. Refer to information at About Latest Weather Observations and please check the disclaimer before using these data.